Skull Valley, Arizona
Current Conditions -  °F | °C
As of 2:53 AM on Saturday 25 Oct 2014 (Local Time) from KPRC Reporting Station
Clear Clear  
Wind Chill: 53°   Ceiling: Unl
Heat Index: 53°   Visibility: 10mi
Dew Point: 38°   Wind: 10mph
Humidity: 57%   Direction: 190°S
Pressure: 30.24"   Gusts: NA
Location:  34.51°N, 112.69°W
Report Text: KPRC 250953Z AUTO 19009KT 10SM CLR 12/03 A3024 RMK AO2 SLP171 T01170033 TSNO
Loading
Personal Weather Stations






























Interactive Weather Map
Tropical Storm Tracking
New forecast layout! Learn more

10-Day Weather Forecast

Advertisements
Track Severe Weather on mobile